STE.-Anne-De-Bellevue, Quebec

7:30 PM EDT on September 16, 2014 (GMT -0400)
Village de Beaurepaire Village | Change Station
CLOSE
Current Station
Personal Weather Station
Location: Beaconsfield, QUEBEC
Elevation: 95 ft
Nearby Weather Stations

Elev 95 ft 45.42 °N, 73.88 °W | Updated 7 seconds ago

Partly Cloudy
Partly Cloudy
58.3 °F
Feels Like 58.3 °F
N
0.0
Wind Variable Wind from SSE
Gusts 0.0 mph

Tomorrow is forecast to be nearly the same temperature as today.

Today
High -- | Low -- °F
--% Chance of Precip.
Yesterday
High -- | Low -- °F
Precip. -- in
6:35 AM 7:04 PM
Last Quarter, 41% visible
Pressure 29.93 in
Visibility 30.0 miles
Clouds Few 4000 ft
Few 24000 ft
Dew Point 45 °F
Humidity 62%
Rainfall 0.01 in
Snow Depth Not available.
UV 0 out of 12
Pollen Not available.
Air Quality Not available.
Flu Activity Not available.
METAR CYUL 162300Z 25010KT 30SM FEW040 FEW240 16/06 A2992 RMK SC1CI1 SLP133 DENSITY ALT 200FT

More Conditions Fewer Conditions

Pressure 29.93 in
Visibility 30.0 miles
Clouds Few 4000 ft
Few 24000 ft
Dew Point 45 °F
Humidity 62%
Rainfall 0.01 in
Snow Depth Not available.
UV 0 out of 12
Pollen Not available.
Air Quality Not available.
Flu Activity Not available.
METAR CYUL 162300Z 25010KT 30SM FEW040 FEW240 16/06 A2992 RMK SC1CI1 SLP133 DENSITY ALT 200FT

More Conditions Fewer Conditions

10-Day Weather Forecast

Almanac

Astronomy

Sep. 16, 2014 Rise Set
Actual Time 6:35 AM EDT 7:04 PM EDT
Civil Twilight 6:05 AM EDT 7:34 PM EDT
Nautical Twilight 5:30 AM EDT 8:09 PM EDT
Astronomical Twilight 4:54 AM EDT 8:45 PM EDT
Moon No Moon Rise 2:38 PM EDT
Length of Visible Light 13h 28m
Length of Day
12h 29m
Tomorrow will be 3m 9s shorter.
Last Quarter, 41% of the Moon is Illuminated
Today
Last Quarter
Sep 24
New
Oct 1
First Quarter
Oct 8
Full
Oct 15
Last Quarter

Today's Extremes

Country Highs Country Lows

Community

WunderPhotos

Upload Photos

1,753,915 photos uploaded!

Nearby

Snow Depth

Not available.

Earthquake Activity

City Distance Mag. Time & Date
No recent earthquake activity has been reported nearby.
Minimum magnitude displayed is 2.5.

Coastal Water Temperatures

Place Temperature
No Stations Reporting

Nearby Weather Stations